sensor_id;sensor_type;location;lat;lon;timestamp;P1;durP1;ratioP1;P2;durP2;ratioP2
62911;SDS011;49111;51.028;4.218;2024-01-15T00:00:23;10.13;;;5.40;;
62911;SDS011;49111;51.028;4.218;2024-01-15T00:02:48;12.00;;;6.72;;
62911;SDS011;49111;51.028;4.218;2024-01-15T00:05:14;9.35;;;5.10;;
62911;SDS011;49111;51.028;4.218;2024-01-15T00:07:40;12.43;;;6.18;;
62911;SDS011;49111;51.028;4.218;2024-01-15T00:10:06;7.57;;;5.13;;
62911;SDS011;49111;51.028;4.218;2024-01-15T00:12:32;9.52;;;5.35;;
62911;SDS011;49111;51.028;4.218;2024-01-15T00:14:58;8.13;;;5.07;;
62911;SDS011;49111;51.028;4.218;2024-01-15T00:17:24;8.07;;;5.28;;
62911;SDS011;49111;51.028;4.218;2024-01-15T00:19:49;8.40;;;4.55;;
62911;SDS011;49111;51.028;4.218;2024-01-15T00:22:15;10.50;;;4.38;;
62911;SDS011;49111;51.028;4.218;2024-01-15T00:24:41;10.15;;;5.07;;
62911;SDS011;49111;51.028;4.218;2024-01-15T00:27:07;10.25;;;5.15;;
62911;SDS011;49111;51.028;4.218;2024-01-15T00:29:32;10.90;;;5.18;;
62911;SDS011;49111;51.028;4.218;2024-01-15T00:31:58;7.85;;;4.97;;
62911;SDS011;49111;51.028;4.218;2024-01-15T00:34:24;8.60;;;4.13;;
62911;SDS011;49111;51.028;4.218;2024-01-15T00:36:50;7.60;;;3.90;;
62911;SDS011;49111;51.028;4.218;2024-01-15T00:39:16;9.10;;;3.97;;
62911;SDS011;49111;51.028;4.218;2024-01-15T00:41:42;10.48;;;4.28;;
62911;SDS011;49111;51.028;4.218;2024-01-15T00:44:08;9.30;;;4.07;;
62911;SDS011;49111;51.028;4.218;2024-01-15T00:46:41;6.85;;;4.32;;
62911;SDS011;49111;51.028;4.218;2024-01-15T00:49:13;7.35;;;4.10;;
62911;SDS011;49111;51.028;4.218;2024-01-15T00:51:39;10.93;;;4.20;;
62911;SDS011;49111;51.028;4.218;2024-01-15T00:54:05;9.43;;;4.55;;
62911;SDS011;49111;51.028;4.218;2024-01-15T00:56:31;8.13;;;4.20;;
62911;SDS011;49111;51.028;4.218;2024-01-15T00:58:57;9.02;;;4.63;;
62911;SDS011;49111;51.028;4.218;2024-01-15T01:01:23;7.50;;;4.22;;
62911;SDS011;49111;51.028;4.218;2024-01-15T01:03:49;7.03;;;4.25;;
62911;SDS011;49111;51.028;4.218;2024-01-15T01:06:15;6.50;;;3.92;;
62911;SDS011;49111;51.028;4.218;2024-01-15T01:08:40;6.97;;;4.00;;
62911;SDS011;49111;51.028;4.218;2024-01-15T01:11:06;8.73;;;3.45;;
62911;SDS011;49111;51.028;4.218;2024-01-15T01:13:32;6.10;;;4.00;;
62911;SDS011;49111;51.028;4.218;2024-01-15T01:15:58;8.27;;;4.20;;
62911;SDS011;49111;51.028;4.218;2024-01-15T01:18:24;5.88;;;3.30;;
62911;SDS011;49111;51.028;4.218;2024-01-15T01:20:50;5.47;;;3.33;;
62911;SDS011;49111;51.028;4.218;2024-01-15T01:23:16;6.00;;;3.70;;
62911;SDS011;49111;51.028;4.218;2024-01-15T01:25:42;10.38;;;4.60;;
62911;SDS011;49111;51.028;4.218;2024-01-15T01:28:07;15.52;;;3.72;;
62911;SDS011;49111;51.028;4.218;2024-01-15T01:30:34;7.43;;;4.00;;
62911;SDS011;49111;51.028;4.218;2024-01-15T01:33:00;6.40;;;3.88;;
62911;SDS011;49111;51.028;4.218;2024-01-15T01:35:26;9.10;;;4.28;;
62911;SDS011;49111;51.028;4.218;2024-01-15T01:37:51;7.20;;;4.43;;
62911;SDS011;49111;51.028;4.218;2024-01-15T01:40:17;9.50;;;3.30;;
62911;SDS011;49111;51.028;4.218;2024-01-15T01:42:43;5.95;;;3.80;;
62911;SDS011;49111;51.028;4.218;2024-01-15T01:45:09;6.32;;;3.00;;
62911;SDS011;49111;51.028;4.218;2024-01-15T01:47:35;5.55;;;2.67;;
62911;SDS011;49111;51.028;4.218;2024-01-15T01:50:01;6.63;;;3.50;;
62911;SDS011;49111;51.028;4.218;2024-01-15T01:52:28;5.45;;;2.95;;
62911;SDS011;49111;51.028;4.218;2024-01-15T01:54:54;4.18;;;2.85;;
62911;SDS011;49111;51.028;4.218;2024-01-15T01:57:20;5.47;;;3.50;;
62911;SDS011;49111;51.028;4.218;2024-01-15T01:59:46;4.15;;;2.90;;
62911;SDS011;49111;51.028;4.218;2024-01-15T02:02:12;4.95;;;3.03;;
62911;SDS011;49111;51.028;4.218;2024-01-15T02:04:39;6.07;;;3.60;;
62911;SDS011;49111;51.028;4.218;2024-01-15T02:07:05;5.47;;;3.03;;
62911;SDS011;49111;51.028;4.218;2024-01-15T02:09:30;5.45;;;3.40;;
62911;SDS011;49111;51.028;4.218;2024-01-15T02:11:57;5.20;;;2.90;;
62911;SDS011;49111;51.028;4.218;2024-01-15T02:14:23;4.65;;;2.80;;
62911;SDS011;49111;51.028;4.218;2024-01-15T02:16:49;7.25;;;2.85;;
62911;SDS011;49111;51.028;4.218;2024-01-15T02:19:15;6.03;;;3.13;;
62911;SDS011;49111;51.028;4.218;2024-01-15T02:21:42;3.10;;;2.70;;
62911;SDS011;49111;51.028;4.218;2024-01-15T02:24:08;5.22;;;3.08;;
62911;SDS011;49111;51.028;4.218;2024-01-15T02:26:34;6.40;;;3.40;;
62911;SDS011;49111;51.028;4.218;2024-01-15T02:29:01;5.10;;;2.72;;
62911;SDS011;49111;51.028;4.218;2024-01-15T02:31:27;6.28;;;2.88;;
62911;SDS011;49111;51.028;4.218;2024-01-15T02:33:53;6.25;;;3.45;;
62911;SDS011;49111;51.028;4.218;2024-01-15T02:36:19;4.38;;;2.25;;
62911;SDS011;49111;51.028;4.218;2024-01-15T02:38:44;8.82;;;3.67;;
62911;SDS011;49111;51.028;4.218;2024-01-15T02:41:10;7.05;;;3.25;;
62911;SDS011;49111;51.028;4.218;2024-01-15T02:43:39;7.20;;;3.20;;
62911;SDS011;49111;51.028;4.218;2024-01-15T02:46:06;7.03;;;2.88;;
62911;SDS011;49111;51.028;4.218;2024-01-15T02:48:32;4.82;;;3.33;;
62911;SDS011;49111;51.028;4.218;2024-01-15T02:51:00;7.97;;;3.00;;
62911;SDS011;49111;51.028;4.218;2024-01-15T02:53:26;5.18;;;2.55;;
62911;SDS011;49111;51.028;4.218;2024-01-15T02:55:52;5.90;;;3.70;;
62911;SDS011;49111;51.028;4.218;2024-01-15T02:58:17;5.38;;;3.33;;
62911;SDS011;49111;51.028;4.218;2024-01-15T03:00:43;5.75;;;2.75;;
62911;SDS011;49111;51.028;4.218;2024-01-15T03:03:09;7.47;;;3.55;;
62911;SDS011;49111;51.028;4.218;2024-01-15T03:05:35;7.97;;;3.13;;
62911;SDS011;49111;51.028;4.218;2024-01-15T03:08:00;6.00;;;3.05;;
62911;SDS011;49111;51.028;4.218;2024-01-15T03:10:26;4.65;;;3.42;;
62911;SDS011;49111;51.028;4.218;2024-01-15T03:12:52;5.40;;;2.67;;
62911;SDS011;49111;51.028;4.218;2024-01-15T03:15:18;5.32;;;3.05;;
62911;SDS011;49111;51.028;4.218;2024-01-15T03:17:44;5.40;;;3.38;;
62911;SDS011;49111;51.028;4.218;2024-01-15T03:20:10;5.90;;;3.90;;
62911;SDS011;49111;51.028;4.218;2024-01-15T03:22:36;6.93;;;3.40;;
62911;SDS011;49111;51.028;4.218;2024-01-15T03:25:02;7.13;;;3.22;;
62911;SDS011;49111;51.028;4.218;2024-01-15T03:27:29;5.80;;;3.17;;
62911;SDS011;49111;51.028;4.218;2024-01-15T03:29:55;4.45;;;2.92;;
62911;SDS011;49111;51.028;4.218;2024-01-15T03:32:20;4.03;;;2.75;;
62911;SDS011;49111;51.028;4.218;2024-01-15T03:34:46;8.32;;;3.90;;
62911;SDS011;49111;51.028;4.218;2024-01-15T03:37:15;7.13;;;3.63;;
62911;SDS011;49111;51.028;4.218;2024-01-15T03:39:41;5.53;;;2.60;;
62911;SDS011;49111;51.028;4.218;2024-01-15T03:42:06;4.28;;;2.35;;
62911;SDS011;49111;51.028;4.218;2024-01-15T03:44:32;4.95;;;2.65;;
62911;SDS011;49111;51.028;4.218;2024-01-15T03:46:58;6.13;;;2.70;;
62911;SDS011;49111;51.028;4.218;2024-01-15T03:49:24;3.88;;;2.85;;
62911;SDS011;49111;51.028;4.218;2024-01-15T03:51:49;8.43;;;3.67;;
62911;SDS011;49111;51.028;4.218;2024-01-15T03:54:15;4.03;;;2.67;;
62911;SDS011;49111;51.028;4.218;2024-01-15T03:56:41;7.80;;;2.40;;
62911;SDS011;49111;51.028;4.218;2024-01-15T03:59:07;5.35;;;2.95;;
62911;SDS011;49111;51.028;4.218;2024-01-15T04:01:32;6.25;;;3.75;;
62911;SDS011;49111;51.028;4.218;2024-01-15T04:03:58;5.18;;;3.08;;
62911;SDS011;49111;51.028;4.218;2024-01-15T04:06:24;7.80;;;3.83;;
62911;SDS011;49111;51.028;4.218;2024-01-15T04:08:50;6.90;;;3.70;;
62911;SDS011;49111;51.028;4.218;2024-01-15T04:11:16;5.15;;;2.53;;
62911;SDS011;49111;51.028;4.218;2024-01-15T04:13:41;7.03;;;3.33;;
62911;SDS011;49111;51.028;4.218;2024-01-15T04:16:07;6.03;;;3.92;;
62911;SDS011;49111;51.028;4.218;2024-01-15T04:18:33;5.68;;;2.67;;
62911;SDS011;49111;51.028;4.218;2024-01-15T04:20:59;7.57;;;3.33;;
62911;SDS011;49111;51.028;4.218;2024-01-15T04:23:25;5.63;;;3.10;;
62911;SDS011;49111;51.028;4.218;2024-01-15T04:25:50;5.88;;;2.92;;
62911;SDS011;49111;51.028;4.218;2024-01-15T04:28:16;5.05;;;3.40;;
62911;SDS011;49111;51.028;4.218;2024-01-15T04:30:42;5.30;;;3.75;;
62911;SDS011;49111;51.028;4.218;2024-01-15T04:33:08;8.68;;;2.72;;
62911;SDS011;49111;51.028;4.218;2024-01-15T04:35:33;6.47;;;3.08;;
62911;SDS011;49111;51.028;4.218;2024-01-15T04:37:59;7.97;;;3.38;;
62911;SDS011;49111;51.028;4.218;2024-01-15T04:40:25;7.03;;;3.90;;
62911;SDS011;49111;51.028;4.218;2024-01-15T04:42:53;4.55;;;2.95;;
62911;SDS011;49111;51.028;4.218;2024-01-15T04:45:19;7.45;;;3.33;;
62911;SDS011;49111;51.028;4.218;2024-01-15T04:47:48;6.60;;;3.00;;
62911;SDS011;49111;51.028;4.218;2024-01-15T04:50:15;6.20;;;3.00;;
62911;SDS011;49111;51.028;4.218;2024-01-15T04:52:40;5.00;;;3.15;;
62911;SDS011;49111;51.028;4.218;2024-01-15T04:55:06;8.77;;;2.90;;
62911;SDS011;49111;51.028;4.218;2024-01-15T04:57:32;5.50;;;2.22;;
62911;SDS011;49111;51.028;4.218;2024-01-15T04:59:58;7.45;;;2.40;;
62911;SDS011;49111;51.028;4.218;2024-01-15T05:02:24;3.40;;;2.33;;
62911;SDS011;49111;51.028;4.218;2024-01-15T05:04:49;5.13;;;2.38;;
62911;SDS011;49111;51.028;4.218;2024-01-15T05:07:15;4.20;;;1.90;;
62911;SDS011;49111;51.028;4.218;2024-01-15T05:09:41;6.88;;;2.40;;
62911;SDS011;49111;51.028;4.218;2024-01-15T05:12:07;5.68;;;2.40;;
62911;SDS011;49111;51.028;4.218;2024-01-15T05:14:33;4.85;;;2.00;;
62911;SDS011;49111;51.028;4.218;2024-01-15T05:16:59;3.50;;;1.77;;
62911;SDS011;49111;51.028;4.218;2024-01-15T05:19:24;4.25;;;2.22;;
62911;SDS011;49111;51.028;4.218;2024-01-15T05:21:50;3.72;;;1.88;;
62911;SDS011;49111;51.028;4.218;2024-01-15T05:24:17;2.58;;;1.95;;
62911;SDS011;49111;51.028;4.218;2024-01-15T05:26:42;4.00;;;1.80;;
62911;SDS011;49111;51.028;4.218;2024-01-15T05:29:08;4.80;;;2.00;;
62911;SDS011;49111;51.028;4.218;2024-01-15T05:31:35;4.30;;;1.58;;
62911;SDS011;49111;51.028;4.218;2024-01-15T05:34:01;3.50;;;1.95;;
62911;SDS011;49111;51.028;4.218;2024-01-15T05:36:27;4.95;;;2.55;;
62911;SDS011;49111;51.028;4.218;2024-01-15T05:38:52;4.43;;;2.30;;
62911;SDS011;49111;51.028;4.218;2024-01-15T05:41:18;8.32;;;2.30;;
62911;SDS011;49111;51.028;4.218;2024-01-15T05:43:44;6.85;;;2.13;;
62911;SDS011;49111;51.028;4.218;2024-01-15T05:46:10;3.70;;;2.42;;
62911;SDS011;49111;51.028;4.218;2024-01-15T05:48:35;4.97;;;1.60;;
62911;SDS011;49111;51.028;4.218;2024-01-15T05:51:01;2.85;;;1.63;;
62911;SDS011;49111;51.028;4.218;2024-01-15T05:53:27;8.43;;;2.35;;
62911;SDS011;49111;51.028;4.218;2024-01-15T05:55:53;5.72;;;1.85;;
62911;SDS011;49111;51.028;4.218;2024-01-15T05:58:21;7.20;;;2.08;;
62911;SDS011;49111;51.028;4.218;2024-01-15T06:00:47;4.25;;;2.20;;
62911;SDS011;49111;51.028;4.218;2024-01-15T06:03:15;3.58;;;1.90;;
62911;SDS011;49111;51.028;4.218;2024-01-15T06:05:41;2.92;;;1.60;;
62911;SDS011;49111;51.028;4.218;2024-01-15T06:08:06;5.18;;;1.98;;
62911;SDS011;49111;51.028;4.218;2024-01-15T06:10:32;3.63;;;1.70;;
62911;SDS011;49111;51.028;4.218;2024-01-15T06:12:59;3.53;;;1.70;;
62911;SDS011;49111;51.028;4.218;2024-01-15T06:15:24;3.30;;;2.10;;
62911;SDS011;49111;51.028;4.218;2024-01-15T06:17:50;5.45;;;2.78;;
62911;SDS011;49111;51.028;4.218;2024-01-15T06:20:16;4.13;;;1.80;;
62911;SDS011;49111;51.028;4.218;2024-01-15T06:22:42;5.18;;;1.77;;
62911;SDS011;49111;51.028;4.218;2024-01-15T06:25:08;6.10;;;2.05;;
62911;SDS011;49111;51.028;4.218;2024-01-15T06:27:34;5.63;;;2.15;;
62911;SDS011;49111;51.028;4.218;2024-01-15T06:29:59;7.30;;;1.60;;
62911;SDS011;49111;51.028;4.218;2024-01-15T06:32:25;6.05;;;2.13;;
62911;SDS011;49111;51.028;4.218;2024-01-15T06:34:51;3.95;;;1.95;;
62911;SDS011;49111;51.028;4.218;2024-01-15T06:37:17;3.47;;;1.73;;
62911;SDS011;49111;51.028;4.218;2024-01-15T06:39:45;5.07;;;1.40;;
62911;SDS011;49111;51.028;4.218;2024-01-15T06:42:11;3.70;;;1.70;;
62911;SDS011;49111;51.028;4.218;2024-01-15T06:44:36;9.82;;;1.73;;
62911;SDS011;49111;51.028;4.218;2024-01-15T06:47:02;15.18;;;3.50;;
62911;SDS011;49111;51.028;4.218;2024-01-15T06:49:29;5.20;;;2.50;;
62911;SDS011;49111;51.028;4.218;2024-01-15T06:51:55;4.80;;;2.25;;
62911;SDS011;49111;51.028;4.218;2024-01-15T06:54:21;3.42;;;2.03;;
62911;SDS011;49111;51.028;4.218;2024-01-15T06:56:47;5.95;;;1.90;;
62911;SDS011;49111;51.028;4.218;2024-01-15T06:59:12;7.53;;;3.25;;
62911;SDS011;49111;51.028;4.218;2024-01-15T07:01:38;3.03;;;1.85;;
62911;SDS011;49111;51.028;4.218;2024-01-15T07:04:04;3.88;;;2.47;;
62911;SDS011;49111;51.028;4.218;2024-01-15T07:06:30;5.35;;;2.38;;
62911;SDS011;49111;51.028;4.218;2024-01-15T07:08:56;6.38;;;2.75;;
62911;SDS011;49111;51.028;4.218;2024-01-15T07:11:22;14.07;;;3.50;;
62911;SDS011;49111;51.028;4.218;2024-01-15T07:13:47;4.97;;;2.60;;
62911;SDS011;49111;51.028;4.218;2024-01-15T07:16:13;5.95;;;2.97;;
62911;SDS011;49111;51.028;4.218;2024-01-15T07:18:39;6.68;;;2.78;;
62911;SDS011;49111;51.028;4.218;2024-01-15T07:21:05;8.68;;;2.67;;
62911;SDS011;49111;51.028;4.218;2024-01-15T07:23:31;9.35;;;2.25;;
62911;SDS011;49111;51.028;4.218;2024-01-15T07:25:57;5.13;;;2.30;;
62911;SDS011;49111;51.028;4.218;2024-01-15T07:28:23;4.30;;;2.10;;
62911;SDS011;49111;51.028;4.218;2024-01-15T07:30:48;8.32;;;2.75;;
62911;SDS011;49111;51.028;4.218;2024-01-15T07:33:14;6.20;;;2.67;;
62911;SDS011;49111;51.028;4.218;2024-01-15T07:35:40;11.75;;;2.88;;
62911;SDS011;49111;51.028;4.218;2024-01-15T07:38:06;5.50;;;3.25;;
62911;SDS011;49111;51.028;4.218;2024-01-15T07:40:32;7.20;;;2.22;;
62911;SDS011;49111;51.028;4.218;2024-01-15T07:42:58;5.10;;;2.45;;
62911;SDS011;49111;51.028;4.218;2024-01-15T07:45:23;4.60;;;2.22;;
62911;SDS011;49111;51.028;4.218;2024-01-15T07:47:49;10.55;;;3.42;;
62911;SDS011;49111;51.028;4.218;2024-01-15T07:50:16;11.57;;;3.28;;
62911;SDS011;49111;51.028;4.218;2024-01-15T07:52:42;5.25;;;2.40;;
62911;SDS011;49111;51.028;4.218;2024-01-15T07:55:08;5.78;;;2.13;;
62911;SDS011;49111;51.028;4.218;2024-01-15T07:57:33;6.07;;;2.63;;
62911;SDS011;49111;51.028;4.218;2024-01-15T08:00:01;3.42;;;2.50;;
62911;SDS011;49111;51.028;4.218;2024-01-15T08:02:30;8.98;;;2.80;;
62911;SDS011;49111;51.028;4.218;2024-01-15T08:04:57;10.95;;;2.92;;
62911;SDS011;49111;51.028;4.218;2024-01-15T08:07:24;6.32;;;2.05;;
62911;SDS011;49111;51.028;4.218;2024-01-15T08:09:52;7.18;;;2.47;;
62911;SDS011;49111;51.028;4.218;2024-01-15T08:12:17;3.60;;;2.58;;
62911;SDS011;49111;51.028;4.218;2024-01-15T08:14:43;8.38;;;2.40;;
62911;SDS011;49111;51.028;4.218;2024-01-15T08:17:10;6.28;;;1.70;;
62911;SDS011;49111;51.028;4.218;2024-01-15T08:19:36;10.60;;;2.80;;
62911;SDS011;49111;51.028;4.218;2024-01-15T08:22:02;5.97;;;2.60;;
62911;SDS011;49111;51.028;4.218;2024-01-15T08:24:28;13.93;;;2.85;;
62911;SDS011;49111;51.028;4.218;2024-01-15T08:26:54;11.35;;;2.35;;
62911;SDS011;49111;51.028;4.218;2024-01-15T08:29:21;6.85;;;2.47;;
62911;SDS011;49111;51.028;4.218;2024-01-15T08:31:47;15.60;;;4.93;;
62911;SDS011;49111;51.028;4.218;2024-01-15T08:34:13;5.05;;;2.53;;
62911;SDS011;49111;51.028;4.218;2024-01-15T08:36:39;4.30;;;1.80;;
62911;SDS011;49111;51.028;4.218;2024-01-15T08:39:05;6.18;;;2.15;;
62911;SDS011;49111;51.028;4.218;2024-01-15T08:41:34;4.53;;;2.13;;
62911;SDS011;49111;51.028;4.218;2024-01-15T08:44:00;7.57;;;1.70;;
62911;SDS011;49111;51.028;4.218;2024-01-15T08:46:28;8.35;;;1.88;;
62911;SDS011;49111;51.028;4.218;2024-01-15T08:48:53;3.45;;;2.00;;
62911;SDS011;49111;51.028;4.218;2024-01-15T08:51:19;6.70;;;2.45;;
62911;SDS011;49111;51.028;4.218;2024-01-15T08:53:45;8.90;;;2.47;;
62911;SDS011;49111;51.028;4.218;2024-01-15T08:56:12;12.68;;;3.42;;
62911;SDS011;49111;51.028;4.218;2024-01-15T08:58:38;7.45;;;2.95;;
62911;SDS011;49111;51.028;4.218;2024-01-15T09:01:03;5.50;;;2.65;;
62911;SDS011;49111;51.028;4.218;2024-01-15T09:03:29;4.88;;;2.35;;
62911;SDS011;49111;51.028;4.218;2024-01-15T09:05:55;5.88;;;2.20;;
62911;SDS011;49111;51.028;4.218;2024-01-15T09:08:21;5.72;;;1.83;;
62911;SDS011;49111;51.028;4.218;2024-01-15T09:10:47;8.38;;;2.42;;
62911;SDS011;49111;51.028;4.218;2024-01-15T09:13:13;7.97;;;2.20;;
62911;SDS011;49111;51.028;4.218;2024-01-15T09:15:39;4.45;;;2.42;;
62911;SDS011;49111;51.028;4.218;2024-01-15T09:18:05;4.82;;;2.35;;
62911;SDS011;49111;51.028;4.218;2024-01-15T09:20:31;3.22;;;2.00;;
62911;SDS011;49111;51.028;4.218;2024-01-15T09:22:57;4.00;;;2.00;;
62911;SDS011;49111;51.028;4.218;2024-01-15T09:25:23;4.60;;;1.92;;
62911;SDS011;49111;51.028;4.218;2024-01-15T09:27:49;4.38;;;2.05;;
62911;SDS011;49111;51.028;4.218;2024-01-15T09:30:15;6.18;;;2.80;;
62911;SDS011;49111;51.028;4.218;2024-01-15T09:32:41;8.05;;;2.33;;
62911;SDS011;49111;51.028;4.218;2024-01-15T09:35:07;14.30;;;2.58;;
62911;SDS011;49111;51.028;4.218;2024-01-15T09:37:33;6.50;;;2.92;;
62911;SDS011;49111;51.028;4.218;2024-01-15T09:39:59;14.98;;;2.47;;
62911;SDS011;49111;51.028;4.218;2024-01-15T09:42:25;3.72;;;2.10;;
62911;SDS011;49111;51.028;4.218;2024-01-15T09:44:52;6.18;;;1.92;;
62911;SDS011;49111;51.028;4.218;2024-01-15T09:47:18;8.55;;;2.58;;
62911;SDS011;49111;51.028;4.218;2024-01-15T09:49:45;4.72;;;1.60;;
62911;SDS011;49111;51.028;4.218;2024-01-15T09:52:11;6.30;;;2.30;;
62911;SDS011;49111;51.028;4.218;2024-01-15T09:54:37;5.88;;;2.33;;
62911;SDS011;49111;51.028;4.218;2024-01-15T09:57:06;7.50;;;2.65;;
62911;SDS011;49111;51.028;4.218;2024-01-15T09:59:32;8.55;;;2.10;;
62911;SDS011;49111;51.028;4.218;2024-01-15T10:02:00;8.20;;;2.00;;
62911;SDS011;49111;51.028;4.218;2024-01-15T10:04:28;8.68;;;2.05;;
62911;SDS011;49111;51.028;4.218;2024-01-15T10:06:54;7.63;;;2.40;;
62911;SDS011;49111;51.028;4.218;2024-01-15T10:09:23;7.13;;;2.35;;
62911;SDS011;49111;51.028;4.218;2024-01-15T10:11:48;7.22;;;2.17;;
62911;SDS011;49111;51.028;4.218;2024-01-15T10:14:14;6.65;;;2.67;;
62911;SDS011;49111;51.028;4.218;2024-01-15T10:16:40;7.75;;;2.40;;
62911;SDS011;49111;51.028;4.218;2024-01-15T10:19:07;5.95;;;2.05;;
62911;SDS011;49111;51.028;4.218;2024-01-15T10:21:34;7.85;;;1.80;;
62911;SDS011;49111;51.028;4.218;2024-01-15T10:24:01;6.90;;;2.25;;
62911;SDS011;49111;51.028;4.218;2024-01-15T10:26:28;4.50;;;2.15;;
62911;SDS011;49111;51.028;4.218;2024-01-15T10:28:54;6.70;;;1.85;;
62911;SDS011;49111;51.028;4.218;2024-01-15T10:31:20;8.57;;;3.05;;
62911;SDS011;49111;51.028;4.218;2024-01-15T10:33:50;6.28;;;2.13;;
62911;SDS011;49111;51.028;4.218;2024-01-15T10:36:16;4.00;;;2.60;;
62911;SDS011;49111;51.028;4.218;2024-01-15T10:38:44;4.45;;;1.80;;
62911;SDS011;49111;51.028;4.218;2024-01-15T10:41:11;3.95;;;1.65;;
62911;SDS011;49111;51.028;4.218;2024-01-15T10:43:37;4.80;;;2.00;;
62911;SDS011;49111;51.028;4.218;2024-01-15T10:46:03;8.57;;;2.08;;
62911;SDS011;49111;51.028;4.218;2024-01-15T10:48:30;6.70;;;1.60;;
62911;SDS011;49111;51.028;4.218;2024-01-15T10:50:59;2.17;;;1.77;;
62911;SDS011;49111;51.028;4.218;2024-01-15T10:53:25;4.57;;;1.50;;
62911;SDS011;49111;51.028;4.218;2024-01-15T10:55:53;5.75;;;1.35;;
62911;SDS011;49111;51.028;4.218;2024-01-15T10:58:19;6.43;;;1.30;;
62911;SDS011;49111;51.028;4.218;2024-01-15T11:00:46;2.97;;;1.30;;
62911;SDS011;49111;51.028;4.218;2024-01-15T11:03:12;4.82;;;1.48;;
62911;SDS011;49111;51.028;4.218;2024-01-15T11:05:39;7.13;;;1.80;;
62911;SDS011;49111;51.028;4.218;2024-01-15T11:08:08;6.45;;;1.55;;
62911;SDS011;49111;51.028;4.218;2024-01-15T11:10:37;3.42;;;2.17;;
62911;SDS011;49111;51.028;4.218;2024-01-15T11:15:56;4.85;;;1.85;;
62911;SDS011;49111;51.028;4.218;2024-01-15T11:18:27;2.30;;;1.83;;
62911;SDS011;49111;51.028;4.218;2024-01-15T11:23:48;5.07;;;1.30;;
62911;SDS011;49111;51.028;4.218;2024-01-15T11:34:08;3.75;;;1.83;;
62911;SDS011;49111;51.028;4.218;2024-01-15T11:42:01;4.38;;;1.45;;
62911;SDS011;49111;51.028;4.218;2024-01-15T11:44:30;4.40;;;1.65;;
62911;SDS011;49111;51.028;4.218;2024-01-15T11:47:03;5.95;;;1.30;;
62911;SDS011;49111;51.028;4.218;2024-01-15T11:52:10;4.63;;;2.00;;
62911;SDS011;49111;51.028;4.218;2024-01-15T11:54:40;5.93;;;1.60;;
62911;SDS011;49111;51.028;4.218;2024-01-15T11:57:15;2.35;;;1.50;;
62911;SDS011;49111;51.028;4.218;2024-01-15T11:59:51;7.28;;;1.70;;
62911;SDS011;49111;51.028;4.218;2024-01-15T12:02:17;4.20;;;1.63;;
62911;SDS011;49111;51.028;4.218;2024-01-15T12:04:43;8.27;;;1.67;;
62911;SDS011;49111;51.028;4.218;2024-01-15T12:07:09;6.72;;;1.65;;
62911;SDS011;49111;51.028;4.218;2024-01-15T12:09:35;5.32;;;1.40;;
62911;SDS011;49111;51.028;4.218;2024-01-15T12:12:09;6.28;;;1.35;;
62911;SDS011;49111;51.028;4.218;2024-01-15T12:14:43;10.05;;;1.63;;
62911;SDS011;49111;51.028;4.218;2024-01-15T12:17:09;7.78;;;1.98;;
62911;SDS011;49111;51.028;4.218;2024-01-15T12:19:36;3.58;;;1.50;;
62911;SDS011;49111;51.028;4.218;2024-01-15T12:22:02;8.13;;;2.72;;
62911;SDS011;49111;51.028;4.218;2024-01-15T12:24:28;7.25;;;1.90;;
62911;SDS011;49111;51.028;4.218;2024-01-15T12:26:54;3.70;;;2.20;;
62911;SDS011;49111;51.028;4.218;2024-01-15T12:29:20;6.90;;;1.90;;
62911;SDS011;49111;51.028;4.218;2024-01-15T12:31:47;6.00;;;2.53;;
62911;SDS011;49111;51.028;4.218;2024-01-15T12:34:13;6.20;;;2.30;;
62911;SDS011;49111;51.028;4.218;2024-01-15T12:36:40;7.18;;;2.45;;
62911;SDS011;49111;51.028;4.218;2024-01-15T12:39:10;9.98;;;2.00;;
62911;SDS011;49111;51.028;4.218;2024-01-15T12:41:37;7.28;;;2.08;;
62911;SDS011;49111;51.028;4.218;2024-01-15T12:44:04;6.43;;;1.60;;
62911;SDS011;49111;51.028;4.218;2024-01-15T12:46:30;3.97;;;1.95;;
62911;SDS011;49111;51.028;4.218;2024-01-15T12:48:56;8.75;;;3.33;;
62911;SDS011;49111;51.028;4.218;2024-01-15T12:51:25;5.85;;;1.55;;
62911;SDS011;49111;51.028;4.218;2024-01-15T12:53:52;5.88;;;1.65;;
62911;SDS011;49111;51.028;4.218;2024-01-15T12:56:18;10.88;;;1.88;;
62911;SDS011;49111;51.028;4.218;2024-01-15T12:58:44;3.60;;;1.60;;
62911;SDS011;49111;51.028;4.218;2024-01-15T13:01:10;6.47;;;1.98;;
62911;SDS011;49111;51.028;4.218;2024-01-15T13:03:36;7.05;;;2.08;;
62911;SDS011;49111;51.028;4.218;2024-01-15T13:06:02;7.68;;;2.10;;
62911;SDS011;49111;51.028;4.218;2024-01-15T13:08:28;5.50;;;2.10;;
62911;SDS011;49111;51.028;4.218;2024-01-15T13:10:55;4.03;;;1.52;;
62911;SDS011;49111;51.028;4.218;2024-01-15T13:13:22;5.93;;;2.03;;
62911;SDS011;49111;51.028;4.218;2024-01-15T13:15:48;10.38;;;2.13;;
62911;SDS011;49111;51.028;4.218;2024-01-15T13:18:14;9.02;;;2.15;;
62911;SDS011;49111;51.028;4.218;2024-01-15T13:20:41;5.38;;;1.90;;
62911;SDS011;49111;51.028;4.218;2024-01-15T13:23:06;3.20;;;1.70;;
62911;SDS011;49111;51.028;4.218;2024-01-15T13:25:32;2.38;;;1.40;;
62911;SDS011;49111;51.028;4.218;2024-01-15T13:28:03;2.50;;;0.90;;
62911;SDS011;49111;51.028;4.218;2024-01-15T13:30:33;3.10;;;1.30;;
62911;SDS011;49111;51.028;4.218;2024-01-15T13:32:59;0.70;;;0.70;;
62911;SDS011;49111;51.028;4.218;2024-01-15T13:35:29;1.00;;;0.90;;
62911;SDS011;49111;51.028;4.218;2024-01-15T13:37:55;1.25;;;1.15;;
62911;SDS011;49111;51.028;4.218;2024-01-15T13:40:21;4.78;;;1.20;;
62911;SDS011;49111;51.028;4.218;2024-01-15T13:42:48;3.25;;;1.65;;
62911;SDS011;49111;51.028;4.218;2024-01-15T13:45:14;3.10;;;0.80;;
62911;SDS011;49111;51.028;4.218;2024-01-15T13:47:40;1.60;;;0.88;;
62911;SDS011;49111;51.028;4.218;2024-01-15T13:50:09;0.90;;;0.90;;
62911;SDS011;49111;51.028;4.218;2024-01-15T13:52:37;3.25;;;1.13;;
62911;SDS011;49111;51.028;4.218;2024-01-15T13:55:03;1.13;;;0.88;;
62911;SDS011;49111;51.028;4.218;2024-01-15T13:57:29;2.25;;;1.00;;
62911;SDS011;49111;51.028;4.218;2024-01-15T13:59:54;4.50;;;1.73;;
62911;SDS011;49111;51.028;4.218;2024-01-15T14:02:20;2.05;;;1.60;;
62911;SDS011;49111;51.028;4.218;2024-01-15T14:04:46;2.55;;;0.82;;
62911;SDS011;49111;51.028;4.218;2024-01-15T14:07:12;3.63;;;1.35;;
62911;SDS011;49111;51.028;4.218;2024-01-15T14:09:38;2.13;;;1.20;;
62911;SDS011;49111;51.028;4.218;2024-01-15T14:12:04;3.72;;;1.90;;
62911;SDS011;49111;51.028;4.218;2024-01-15T14:14:32;3.63;;;1.63;;
62911;SDS011;49111;51.028;4.218;2024-01-15T14:16:58;2.33;;;1.20;;
62911;SDS011;49111;51.028;4.218;2024-01-15T14:19:24;5.15;;;1.90;;
62911;SDS011;49111;51.028;4.218;2024-01-15T14:21:50;2.90;;;1.40;;
62911;SDS011;49111;51.028;4.218;2024-01-15T14:24:16;3.90;;;1.48;;
62911;SDS011;49111;51.028;4.218;2024-01-15T14:26:42;4.90;;;1.55;;
62911;SDS011;49111;51.028;4.218;2024-01-15T14:29:08;6.88;;;1.60;;
62911;SDS011;49111;51.028;4.218;2024-01-15T14:31:34;1.75;;;1.10;;
62911;SDS011;49111;51.028;4.218;2024-01-15T14:34:00;4.45;;;1.52;;
62911;SDS011;49111;51.028;4.218;2024-01-15T14:36:28;4.03;;;1.48;;
62911;SDS011;49111;51.028;4.218;2024-01-15T14:38:53;4.82;;;1.52;;
62911;SDS011;49111;51.028;4.218;2024-01-15T14:41:19;7.88;;;1.90;;
62911;SDS011;49111;51.028;4.218;2024-01-15T14:43:45;3.90;;;1.98;;
62911;SDS011;49111;51.028;4.218;2024-01-15T14:46:11;5.85;;;2.40;;
62911;SDS011;49111;51.028;4.218;2024-01-15T14:48:37;4.28;;;1.90;;
62911;SDS011;49111;51.028;4.218;2024-01-15T14:51:03;3.03;;;1.33;;
62911;SDS011;49111;51.028;4.218;2024-01-15T14:53:29;6.28;;;2.10;;
62911;SDS011;49111;51.028;4.218;2024-01-15T14:55:55;4.85;;;1.60;;
62911;SDS011;49111;51.028;4.218;2024-01-15T14:58:20;3.53;;;1.80;;
62911;SDS011;49111;51.028;4.218;2024-01-15T15:00:46;4.15;;;1.90;;